createdAt,value
2022-11-27T00:00:11.751Z,1011.51
2022-11-27T00:01:11.747Z,1011.52
2022-11-27T00:02:11.776Z,1011.49
2022-11-27T00:03:11.823Z,1011.55
2022-11-27T00:04:11.792Z,1011.63
2022-11-27T00:05:11.686Z,1011.53
2022-11-27T00:06:11.679Z,1011.50
2022-11-27T00:07:11.743Z,1011.53
2022-11-27T00:08:11.647Z,1011.46
2022-11-27T00:09:11.645Z,1011.50
2022-11-27T00:10:11.632Z,1011.43
2022-11-27T00:11:11.623Z,1011.44
2022-11-27T00:12:11.634Z,1011.40
2022-11-27T00:13:11.624Z,1011.41
2022-11-27T00:14:11.596Z,1011.34
2022-11-27T00:15:16.969Z,1011.35
2022-11-27T00:16:12.613Z,1011.27
2022-11-27T00:17:11.547Z,1011.27
2022-11-27T00:18:11.556Z,1011.28
2022-11-27T00:19:11.526Z,1011.25
2022-11-27T00:20:11.524Z,1011.26
2022-11-27T00:21:11.504Z,1011.24
2022-11-27T00:22:11.503Z,1011.22
2022-11-27T00:23:11.506Z,1011.22
2022-11-27T00:24:11.477Z,1011.21
2022-11-27T00:25:11.457Z,1011.18
2022-11-27T00:26:11.455Z,1011.21
2022-11-27T00:27:11.437Z,1011.18
2022-11-27T00:28:11.426Z,1011.17
2022-11-27T00:29:11.437Z,1011.12
2022-11-27T00:30:11.415Z,1011.12
2022-11-27T00:31:11.424Z,1011.12
2022-11-27T00:32:11.385Z,1011.07
2022-11-27T00:33:11.369Z,1011.13
2022-11-27T00:34:11.366Z,1011.04
2022-11-27T00:35:11.358Z,1011.13
2022-11-27T00:36:11.344Z,1011.09
2022-11-27T00:37:11.324Z,1011.09
2022-11-27T00:38:11.316Z,1011.08
2022-11-27T00:39:11.304Z,1011.04
2022-11-27T00:40:11.322Z,1011.08
2022-11-27T00:41:11.282Z,1011.02
2022-11-27T00:42:11.274Z,1010.98
2022-11-27T00:43:11.274Z,1010.99
2022-11-27T00:44:11.245Z,1011.02
2022-11-27T00:45:11.234Z,1010.95
2022-11-27T00:46:11.266Z,1010.98
2022-11-27T00:47:11.215Z,1010.96
2022-11-27T00:48:11.203Z,1010.94
2022-11-27T00:49:11.185Z,1010.98
2022-11-27T00:50:11.175Z,1010.95
2022-11-27T00:51:11.169Z,1010.97
2022-11-27T00:52:11.179Z,1010.97
2022-11-27T00:53:11.136Z,1010.96
2022-11-27T00:54:11.135Z,1010.95
2022-11-27T00:55:11.127Z,1011.00
2022-11-27T00:56:11.120Z,1010.97
2022-11-27T00:57:11.096Z,1010.94
2022-11-27T00:58:11.103Z,1010.95
2022-11-27T00:59:11.085Z,1010.96
2022-11-27T01:00:11.067Z,1010.99
2022-11-27T01:01:11.079Z,1010.96
2022-11-27T01:02:11.105Z,1010.96
2022-11-27T01:03:11.135Z,1010.93
2022-11-27T01:04:11.016Z,1010.94
2022-11-27T01:05:11.070Z,1010.94
2022-11-27T01:06:10.993Z,1010.96
2022-11-27T01:07:11.083Z,1010.98
2022-11-27T01:08:10.965Z,1010.93
2022-11-27T01:09:10.982Z,1010.86
2022-11-27T01:10:10.944Z,1010.89
2022-11-27T01:11:10.942Z,1010.87
2022-11-27T01:12:10.923Z,1010.86
2022-11-27T01:13:10.914Z,1010.81
2022-11-27T01:14:10.904Z,1010.81
2022-11-27T01:15:10.905Z,1010.81
2022-11-27T01:16:10.960Z,1010.78
2022-11-27T01:17:10.864Z,1010.83
2022-11-27T01:18:10.853Z,1010.84
2022-11-27T01:19:10.845Z,1010.79
2022-11-27T01:20:10.902Z,1010.83
2022-11-27T01:21:10.825Z,1010.88
2022-11-27T01:22:10.805Z,1010.92
2022-11-27T01:23:10.802Z,1010.86
2022-11-27T01:24:10.784Z,1010.83
2022-11-27T01:25:10.773Z,1010.84
2022-11-27T01:26:10.793Z,1010.77
2022-11-27T01:27:10.753Z,1010.76
2022-11-27T01:28:10.740Z,1010.70
2022-11-27T01:29:10.734Z,1010.69
2022-11-27T01:30:10.727Z,1010.70
2022-11-27T01:31:10.774Z,1010.69
2022-11-27T01:32:10.712Z,1010.64
2022-11-27T01:33:10.682Z,1010.62
2022-11-27T01:34:10.673Z,1010.64
2022-11-27T01:35:10.663Z,1010.65
2022-11-27T01:36:10.643Z,1010.64
2022-11-27T01:37:10.633Z,1010.63
2022-11-27T01:38:10.652Z,1010.62
2022-11-27T01:39:10.613Z,1010.62
2022-11-27T01:40:10.603Z,1010.58
2022-11-27T01:41:10.592Z,1010.60
2022-11-27T01:42:10.585Z,1010.62
2022-11-27T01:43:10.573Z,1010.61
2022-11-27T01:44:10.575Z,1010.55
2022-11-27T01:45:10.546Z,1010.58
2022-11-27T01:46:10.593Z,1010.55
2022-11-27T01:47:10.522Z,1010.46
2022-11-27T01:48:10.566Z,1010.44
2022-11-27T01:49:10.557Z,1010.44
2022-11-27T01:50:10.485Z,1010.50
2022-11-27T01:51:10.481Z,1010.48
2022-11-27T01:52:10.463Z,1010.47
2022-11-27T01:53:10.452Z,1010.49
2022-11-27T01:54:10.443Z,1010.52
2022-11-27T01:55:10.460Z,1010.54
2022-11-27T01:56:10.420Z,1010.57
2022-11-27T01:57:10.417Z,1010.59
2022-11-27T01:58:10.402Z,1010.61
2022-11-27T01:59:10.391Z,1010.64
2022-11-27T02:00:10.376Z,1010.67
2022-11-27T02:01:10.382Z,1010.54
2022-11-27T02:02:10.421Z,1010.57
2022-11-27T02:03:10.450Z,1010.66
2022-11-27T02:04:10.321Z,1010.62
2022-11-27T02:05:10.321Z,1010.66
2022-11-27T02:06:10.327Z,1010.67
2022-11-27T02:07:10.323Z,1010.68
2022-11-27T02:08:10.281Z,1010.73
2022-11-27T02:09:10.272Z,1010.71
2022-11-27T02:10:10.267Z,1010.70
2022-11-27T02:11:10.251Z,1010.69
2022-11-27T02:12:10.251Z,1010.68
2022-11-27T02:13:10.233Z,1010.60
2022-11-27T02:14:10.211Z,1010.61
2022-11-27T02:15:10.201Z,1010.53
2022-11-27T02:16:12.734Z,1010.60
2022-11-27T02:17:11.201Z,1010.60
2022-11-27T02:18:10.161Z,1010.53
2022-11-27T02:19:10.161Z,1010.56
2022-11-27T02:20:10.141Z,1010.55
2022-11-27T02:21:10.143Z,1010.58
2022-11-27T02:22:10.121Z,1010.52
2022-11-27T02:23:10.132Z,1010.53
2022-11-27T02:24:10.099Z,1010.53
2022-11-27T02:25:10.094Z,1010.42
2022-11-27T02:26:10.071Z,1010.45
2022-11-27T02:27:10.061Z,1010.44
2022-11-27T02:28:10.050Z,1010.44
2022-11-27T02:29:10.060Z,1010.44
2022-11-27T02:30:10.026Z,1010.44
2022-11-27T02:31:10.049Z,1010.37
2022-11-27T02:32:10.013Z,1010.38
2022-11-27T02:33:09.999Z,1010.37
2022-11-27T02:34:10.008Z,1010.30
2022-11-27T02:35:09.970Z,1010.33
2022-11-27T02:36:09.962Z,1010.32
2022-11-27T02:37:09.949Z,1010.30
2022-11-27T02:38:09.930Z,1010.28
2022-11-27T02:39:09.920Z,1010.32
2022-11-27T02:40:09.931Z,1010.32
2022-11-27T02:41:09.900Z,1010.29
2022-11-27T02:42:09.890Z,1010.30
2022-11-27T02:43:09.890Z,1010.31
2022-11-27T02:44:09.868Z,1010.34
2022-11-27T02:45:09.857Z,1010.31
2022-11-27T02:46:09.923Z,1010.35
2022-11-27T02:47:09.831Z,1010.33
2022-11-27T02:48:09.820Z,1010.32
2022-11-27T02:49:09.809Z,1010.32
2022-11-27T02:50:09.799Z,1010.30
2022-11-27T02:51:09.840Z,1010.29
2022-11-27T02:52:09.818Z,1010.33
2022-11-27T02:53:09.768Z,1010.37
2022-11-27T02:54:09.751Z,1010.34
2022-11-27T02:55:09.741Z,1010.35
2022-11-27T02:56:09.739Z,1010.34
2022-11-27T02:57:09.746Z,1010.28
2022-11-27T02:58:09.700Z,1010.32
2022-11-27T02:59:09.689Z,1010.27
2022-11-27T03:00:09.679Z,1010.26
2022-11-27T03:01:09.680Z,1010.24
2022-11-27T03:02:09.713Z,1010.24
2022-11-27T03:03:09.777Z,1010.26
2022-11-27T03:04:09.638Z,1010.25
2022-11-27T03:05:09.629Z,1010.27
2022-11-27T03:06:09.619Z,1010.21
2022-11-27T03:07:09.749Z,1010.20
2022-11-27T03:08:09.620Z,1010.23
2022-11-27T03:09:09.589Z,1010.21
2022-11-27T03:10:09.570Z,1010.23
2022-11-27T03:11:09.559Z,1010.20
2022-11-27T03:12:09.673Z,1010.22
2022-11-27T03:13:09.541Z,1010.17
2022-11-27T03:14:09.548Z,1010.20
2022-11-27T03:15:09.516Z,1010.19
2022-11-27T03:16:09.531Z,1010.11
2022-11-27T03:17:16.563Z,1010.17
2022-11-27T03:18:09.469Z,1010.12
2022-11-27T03:19:09.468Z,1010.09
2022-11-27T03:20:09.478Z,1010.12
2022-11-27T03:21:09.448Z,1010.07
2022-11-27T03:22:09.429Z,1010.09
2022-11-27T03:23:09.418Z,1010.10
2022-11-27T03:24:09.411Z,1010.08
2022-11-27T03:25:09.399Z,1010.08
2022-11-27T03:26:09.410Z,1010.11
2022-11-27T03:27:09.378Z,1010.08
2022-11-27T03:28:09.358Z,1010.09
2022-11-27T03:29:09.352Z,1010.09
2022-11-27T03:30:09.339Z,1010.07
2022-11-27T03:31:09.400Z,1010.07
2022-11-27T03:32:09.317Z,1010.08
2022-11-27T03:33:09.319Z,1010.05
2022-11-27T03:34:09.316Z,1010.11
2022-11-27T03:35:09.278Z,1010.02
2022-11-27T03:36:09.269Z,1010.06
2022-11-27T03:37:09.286Z,1009.99
2022-11-27T03:38:09.240Z,1010.03
2022-11-27T03:39:09.250Z,1010.05
2022-11-27T03:40:09.226Z,1010.05
2022-11-27T03:41:09.240Z,1010.05
2022-11-27T03:42:09.206Z,1010.05
2022-11-27T03:43:09.207Z,1010.00
2022-11-27T03:44:09.169Z,1009.97
2022-11-27T03:45:09.196Z,1009.91
2022-11-27T03:46:09.200Z,1009.90
2022-11-27T03:47:09.193Z,1009.87
2022-11-27T03:48:09.148Z,1009.83
2022-11-27T03:49:09.125Z,1009.81
2022-11-27T03:50:09.107Z,1009.81
2022-11-27T03:51:09.119Z,1009.85
2022-11-27T03:52:09.079Z,1009.82
2022-11-27T03:53:09.078Z,1009.80
2022-11-27T03:54:09.078Z,1009.77
2022-11-27T03:55:09.076Z,1009.76
2022-11-27T03:56:10.233Z,1009.72
2022-11-27T03:57:09.029Z,1009.71
2022-11-27T03:58:09.017Z,1009.69
2022-11-27T03:59:09.029Z,1009.75
2022-11-27T04:00:08.998Z,1009.73
2022-11-27T04:01:08.987Z,1009.70
2022-11-27T04:02:09.029Z,1009.71
2022-11-27T04:03:08.967Z,1009.70
2022-11-27T04:04:09.054Z,1009.73
2022-11-27T04:05:08.957Z,1009.67
2022-11-27T04:06:08.917Z,1009.70
2022-11-27T04:07:08.915Z,1009.75
2022-11-27T04:08:08.900Z,1009.72
2022-11-27T04:09:08.887Z,1009.65
2022-11-27T04:10:08.878Z,1009.71
2022-11-27T04:11:08.885Z,1009.66
2022-11-27T04:12:08.849Z,1009.71
2022-11-27T04:13:08.839Z,1009.67
2022-11-27T04:14:08.827Z,1009.67
2022-11-27T04:15:08.825Z,1009.64
2022-11-27T04:16:08.909Z,1009.62
2022-11-27T04:17:08.796Z,1009.65
2022-11-27T04:18:08.784Z,1009.60
2022-11-27T04:19:08.774Z,1009.59
2022-11-27T04:20:08.761Z,1009.57
2022-11-27T04:21:08.748Z,1009.57
2022-11-27T04:22:08.755Z,1009.52
2022-11-27T04:23:08.738Z,1009.53
2022-11-27T04:24:08.717Z,1009.52
2022-11-27T04:25:08.706Z,1009.53
2022-11-27T04:26:08.715Z,1009.47
2022-11-27T04:27:08.720Z,1009.53
2022-11-27T04:28:08.657Z,1009.51
2022-11-27T04:29:08.653Z,1009.46
2022-11-27T04:30:08.638Z,1009.51
2022-11-27T04:31:08.680Z,1009.47
2022-11-27T04:32:08.625Z,1009.45
2022-11-27T04:33:08.638Z,1009.45
2022-11-27T04:34:08.595Z,1009.48
2022-11-27T04:35:08.590Z,1009.50
2022-11-27T04:36:08.576Z,1009.48
2022-11-27T04:37:08.577Z,1009.50
2022-11-27T04:38:08.554Z,1009.44
2022-11-27T04:39:08.565Z,1009.45
2022-11-27T04:40:08.524Z,1009.38
2022-11-27T04:41:08.513Z,1009.45
2022-11-27T04:42:08.494Z,1009.42
2022-11-27T04:43:08.520Z,1009.36
2022-11-27T04:44:08.476Z,1009.37
2022-11-27T04:45:08.485Z,1009.37
2022-11-27T04:46:08.489Z,1009.33
2022-11-27T04:47:08.486Z,1009.37
2022-11-27T04:48:08.434Z,1009.36
2022-11-27T04:49:08.423Z,1009.41
2022-11-27T04:50:08.404Z,1009.42
2022-11-27T04:51:08.423Z,1009.46
2022-11-27T04:52:08.385Z,1009.45
2022-11-27T04:53:08.383Z,1009.40
2022-11-27T04:54:08.365Z,1009.50
2022-11-27T04:55:08.352Z,1009.41
2022-11-27T04:56:08.362Z,1009.36
2022-11-27T04:57:08.344Z,1009.44
2022-11-27T04:58:08.314Z,1009.41
2022-11-27T04:59:08.305Z,1009.47
2022-11-27T05:00:08.294Z,1009.43
2022-11-27T05:01:08.334Z,1009.42
2022-11-27T05:02:08.284Z,1009.49
2022-11-27T05:03:08.410Z,1009.41
2022-11-27T05:04:08.244Z,1009.42
2022-11-27T05:05:08.234Z,1009.42
2022-11-27T05:06:08.224Z,1009.42
2022-11-27T05:07:08.211Z,1009.38
2022-11-27T05:08:08.214Z,1009.38
2022-11-27T05:09:08.183Z,1009.37
2022-11-27T05:10:08.172Z,1009.37
2022-11-27T05:11:08.162Z,1009.37
2022-11-27T05:12:08.153Z,1009.40
2022-11-27T05:13:08.165Z,1009.39
2022-11-27T05:14:08.126Z,1009.36
2022-11-27T05:15:08.114Z,1009.39
2022-11-27T05:16:08.197Z,1009.35
2022-11-27T05:17:08.103Z,1009.32
2022-11-27T05:18:08.074Z,1009.31
2022-11-27T05:19:08.082Z,1009.28
2022-11-27T05:20:08.053Z,1009.29
2022-11-27T05:21:08.083Z,1009.36
2022-11-27T05:22:08.032Z,1009.29
2022-11-27T05:23:08.027Z,1009.33
2022-11-27T05:24:08.033Z,1009.31
2022-11-27T05:25:07.996Z,1009.25
2022-11-27T05:26:07.982Z,1009.26
2022-11-27T05:27:07.974Z,1009.25
2022-11-27T05:28:07.983Z,1009.23
2022-11-27T05:29:07.970Z,1009.25
2022-11-27T05:30:07.960Z,1009.19
2022-11-27T05:31:07.972Z,1009.21
2022-11-27T05:32:07.914Z,1009.18
2022-11-27T05:33:07.925Z,1009.15
2022-11-27T05:34:07.892Z,1009.09
2022-11-27T05:35:07.901Z,1009.18
2022-11-27T05:36:07.886Z,1009.12
2022-11-27T05:37:07.861Z,1009.16
2022-11-27T05:38:07.849Z,1009.09
2022-11-27T05:39:07.836Z,1009.12
2022-11-27T05:40:07.836Z,1009.05
2022-11-27T05:41:07.828Z,1009.10
2022-11-27T05:42:07.801Z,1009.07
2022-11-27T05:43:07.791Z,1009.06
2022-11-27T05:44:07.781Z,1009.02
2022-11-27T05:45:07.763Z,1009.10
2022-11-27T05:46:07.789Z,1009.07
2022-11-27T05:47:07.892Z,1009.16
2022-11-27T05:48:07.732Z,1009.19
2022-11-27T05:49:07.723Z,1009.22
2022-11-27T05:50:07.711Z,1009.26
2022-11-27T05:51:07.702Z,1009.19
2022-11-27T05:52:07.710Z,1009.20
2022-11-27T05:53:07.675Z,1009.22
2022-11-27T05:54:07.675Z,1009.21
2022-11-27T05:55:07.653Z,1009.17
2022-11-27T05:56:07.656Z,1009.18
2022-11-27T05:57:07.635Z,1009.14
2022-11-27T05:58:07.638Z,1009.13
2022-11-27T05:59:07.624Z,1009.11
2022-11-27T06:00:07.604Z,1009.16
2022-11-27T06:01:07.590Z,1009.17
2022-11-27T06:02:07.636Z,1009.15
2022-11-27T06:03:07.670Z,1009.13
2022-11-27T06:04:07.600Z,1009.12
2022-11-27T06:05:07.540Z,1009.04
2022-11-27T06:06:07.538Z,1009.14
2022-11-27T06:07:07.532Z,1009.11
2022-11-27T06:08:07.519Z,1009.15
2022-11-27T06:09:12.469Z,1009.10
2022-11-27T06:10:08.489Z,1009.03
2022-11-27T06:11:07.472Z,1009.00
2022-11-27T06:12:07.470Z,1008.93
2022-11-27T06:13:07.486Z,1008.89
2022-11-27T06:14:07.473Z,1008.86
2022-11-27T06:15:07.429Z,1008.88
2022-11-27T06:16:07.508Z,1008.82
2022-11-27T06:17:07.411Z,1008.77
2022-11-27T06:18:07.408Z,1008.78
2022-11-27T06:19:07.393Z,1008.78
2022-11-27T06:20:07.400Z,1008.80
2022-11-27T06:21:07.378Z,1008.79
2022-11-27T06:22:07.358Z,1008.77
2022-11-27T06:23:07.384Z,1008.71
2022-11-27T06:24:07.337Z,1008.69
2022-11-27T06:25:07.317Z,1008.76
2022-11-27T06:26:07.341Z,1008.76
2022-11-27T06:27:07.304Z,1008.75
2022-11-27T06:28:07.289Z,1008.73
2022-11-27T06:29:07.287Z,1008.76
2022-11-27T06:30:07.298Z,1008.69
2022-11-27T06:31:07.297Z,1008.72
2022-11-27T06:32:07.292Z,1008.60
2022-11-27T06:33:07.238Z,1008.68
2022-11-27T06:34:07.221Z,1008.67
2022-11-27T06:35:07.218Z,1008.65
2022-11-27T06:36:07.208Z,1008.67
2022-11-27T06:37:11.774Z,1008.66
2022-11-27T06:38:08.175Z,1008.76
2022-11-27T06:39:07.176Z,1008.70
2022-11-27T06:40:07.150Z,1008.74
2022-11-27T06:41:07.156Z,1008.70
2022-11-27T06:42:07.144Z,1008.70
2022-11-27T06:43:07.138Z,1008.74
2022-11-27T06:44:07.110Z,1008.76
2022-11-27T06:45:07.097Z,1008.72
2022-11-27T06:46:07.153Z,1008.74
2022-11-27T06:47:07.068Z,1008.74
2022-11-27T06:48:07.067Z,1008.68
2022-11-27T06:49:07.069Z,1008.65
2022-11-27T06:50:07.045Z,1008.64
2022-11-27T06:51:07.027Z,1008.68
2022-11-27T06:52:07.035Z,1008.67
2022-11-27T06:53:07.007Z,1008.63
2022-11-27T06:54:07.004Z,1008.60
2022-11-27T06:55:07.000Z,1008.58
2022-11-27T06:56:06.993Z,1008.60
2022-11-27T06:57:06.975Z,1008.59
2022-11-27T06:58:06.947Z,1008.60
2022-11-27T06:59:06.927Z,1008.62
2022-11-27T07:00:06.927Z,1008.59
2022-11-27T07:01:06.979Z,1008.60
2022-11-27T07:02:06.959Z,1008.60
2022-11-27T07:03:06.895Z,1008.63
2022-11-27T07:04:06.888Z,1008.62
2022-11-27T07:05:06.866Z,1008.64
2022-11-27T07:06:06.880Z,1008.68
2022-11-27T07:07:06.848Z,1008.65
2022-11-27T07:08:06.902Z,1008.69
2022-11-27T07:09:06.820Z,1008.58
2022-11-27T07:10:06.816Z,1008.59
2022-11-27T07:11:06.797Z,1008.56
2022-11-27T07:12:06.806Z,1008.48
2022-11-27T07:13:06.776Z,1008.52
2022-11-27T07:14:06.805Z,1008.48
2022-11-27T07:15:06.755Z,1008.50
2022-11-27T07:16:06.811Z,1008.48
2022-11-27T07:17:06.730Z,1008.46
2022-11-27T07:18:06.760Z,1008.45
2022-11-27T07:19:06.725Z,1008.44
2022-11-27T07:20:06.709Z,1008.45
2022-11-27T07:21:06.685Z,1008.41
2022-11-27T07:22:06.678Z,1008.36
2022-11-27T07:23:06.690Z,1008.42
2022-11-27T07:24:06.673Z,1008.39
2022-11-27T07:25:06.647Z,1008.41
2022-11-27T07:26:06.636Z,1008.40
2022-11-27T07:27:06.746Z,1008.41
2022-11-27T07:28:06.615Z,1008.36
2022-11-27T07:29:06.643Z,1008.33
2022-11-27T07:30:06.596Z,1008.32
2022-11-27T07:31:06.616Z,1008.32
2022-11-27T07:32:06.611Z,1008.23
2022-11-27T07:33:06.556Z,1008.29
2022-11-27T07:34:09.931Z,1008.28
2022-11-27T07:35:07.553Z,1008.25
2022-11-27T07:36:06.524Z,1008.32
2022-11-27T07:37:06.524Z,1008.38
2022-11-27T07:38:06.503Z,1008.38
2022-11-27T07:39:06.493Z,1008.45
2022-11-27T07:40:06.485Z,1008.42
2022-11-27T07:41:06.491Z,1008.41
2022-11-27T07:42:36.521Z,1008.41
2022-11-27T07:43:07.455Z,1008.40
2022-11-27T07:44:06.434Z,1008.38
2022-11-27T07:45:06.423Z,1008.36
2022-11-27T07:46:06.471Z,1008.35
2022-11-27T07:47:06.424Z,1008.29
2022-11-27T07:48:06.401Z,1008.36
2022-11-27T07:49:06.385Z,1008.36
2022-11-27T07:50:06.372Z,1008.39
2022-11-27T07:51:06.353Z,1008.41
2022-11-27T07:52:06.343Z,1008.36
2022-11-27T07:53:06.352Z,1008.38
2022-11-27T07:54:06.324Z,1008.42
2022-11-27T07:55:06.364Z,1008.42
2022-11-27T07:56:06.301Z,1008.46
2022-11-27T07:57:06.294Z,1008.49
2022-11-27T07:58:06.302Z,1008.51
2022-11-27T07:59:06.262Z,1008.47
2022-11-27T08:00:06.252Z,1008.42
2022-11-27T08:01:06.295Z,1008.41
2022-11-27T08:02:06.232Z,1008.43
2022-11-27T08:03:06.223Z,1008.34
2022-11-27T08:04:06.242Z,1008.34
2022-11-27T08:05:12.171Z,1008.30
2022-11-27T08:06:07.191Z,1008.30
2022-11-27T08:07:06.313Z,1008.20
2022-11-27T08:08:06.212Z,1008.21
2022-11-27T08:09:06.155Z,1008.16
2022-11-27T08:10:06.184Z,1008.12
2022-11-27T08:11:06.135Z,1008.09
2022-11-27T08:12:06.129Z,1008.05
2022-11-27T08:13:06.124Z,1008.02
2022-11-27T08:14:06.116Z,1007.97
2022-11-27T08:15:06.082Z,1007.95
2022-11-27T08:16:06.170Z,1007.89
2022-11-27T08:17:06.073Z,1007.96
2022-11-27T08:18:06.061Z,1007.89
2022-11-27T08:19:06.043Z,1007.92
2022-11-27T08:20:06.044Z,1007.93
2022-11-27T08:21:06.023Z,1007.92
2022-11-27T08:22:06.032Z,1008.02
2022-11-27T08:23:06.004Z,1008.08
2022-11-27T08:24:05.994Z,1008.04
2022-11-27T08:25:05.970Z,1008.07
2022-11-27T08:26:05.973Z,1008.06
2022-11-27T08:27:05.961Z,1008.06
2022-11-27T08:28:05.974Z,1008.04
2022-11-27T08:29:05.931Z,1008.05
2022-11-27T08:30:05.920Z,1008.08
2022-11-27T08:31:05.911Z,1008.06
2022-11-27T08:32:06.011Z,1008.02
2022-11-27T08:33:05.929Z,1008.05
2022-11-27T08:34:05.880Z,1008.04
2022-11-27T08:35:05.878Z,1007.99
2022-11-27T08:36:08.479Z,1007.94
2022-11-27T08:37:05.850Z,1008.00
2022-11-27T08:38:05.833Z,1007.99
2022-11-27T08:39:05.852Z,1007.95
2022-11-27T08:40:05.811Z,1007.85
2022-11-27T08:41:05.791Z,1007.80
2022-11-27T08:42:05.788Z,1007.85
2022-11-27T08:43:05.778Z,1007.86
2022-11-27T08:44:09.131Z,1007.92
2022-11-27T08:45:05.751Z,1007.97
2022-11-27T08:46:05.777Z,1007.92
2022-11-27T08:47:05.731Z,1007.99
2022-11-27T08:48:05.711Z,1007.92
2022-11-27T08:49:05.702Z,1007.90
2022-11-27T08:50:05.719Z,1007.90
2022-11-27T08:51:05.694Z,1007.90
2022-11-27T08:52:05.674Z,1007.91
2022-11-27T08:53:05.656Z,1007.89
2022-11-27T08:54:05.650Z,1007.95
2022-11-27T08:55:05.661Z,1007.91
2022-11-27T08:56:05.618Z,1007.90
2022-11-27T08:57:05.637Z,1007.89
2022-11-27T08:58:05.599Z,1007.87
2022-11-27T08:59:05.597Z,1007.89
2022-11-27T09:00:05.585Z,1007.86
2022-11-27T09:01:05.660Z,1007.93
2022-11-27T09:02:05.554Z,1007.86
2022-11-27T09:03:05.543Z,1007.84
2022-11-27T09:04:05.572Z,1007.89
2022-11-27T09:05:05.539Z,1007.88
2022-11-27T09:06:05.509Z,1007.87
2022-11-27T09:07:05.557Z,1007.91
2022-11-27T09:08:05.501Z,1007.79
2022-11-27T09:09:05.478Z,1007.73
2022-11-27T09:10:05.488Z,1007.73
2022-11-27T09:11:05.519Z,1007.61
2022-11-27T09:12:05.450Z,1007.66
2022-11-27T09:13:05.450Z,1007.68
2022-11-27T09:14:05.451Z,1007.70
2022-11-27T09:15:05.410Z,1007.66
2022-11-27T09:16:05.500Z,1007.70
2022-11-27T09:17:05.409Z,1007.68
2022-11-27T09:18:05.368Z,1007.73
2022-11-27T09:19:05.383Z,1007.69
2022-11-27T09:20:05.348Z,1007.80
2022-11-27T09:21:05.342Z,1007.84
2022-11-27T09:22:05.328Z,1007.83
2022-11-27T09:23:08.938Z,1007.83
2022-11-27T09:24:06.349Z,1007.84
2022-11-27T09:25:05.372Z,1007.85
2022-11-27T09:26:05.277Z,1007.78
2022-11-27T09:27:05.268Z,1007.78
2022-11-27T09:28:05.270Z,1007.76
2022-11-27T09:29:05.239Z,1007.74
2022-11-27T09:30:05.258Z,1007.71
2022-11-27T09:31:05.237Z,1007.66
2022-11-27T09:32:05.274Z,1007.62
2022-11-27T09:33:05.212Z,1007.64
2022-11-27T09:34:05.178Z,1007.65
2022-11-27T09:35:05.250Z,1007.65
2022-11-27T09:36:05.177Z,1007.65
2022-11-27T09:37:05.163Z,1007.67
2022-11-27T09:38:05.127Z,1007.62
2022-11-27T09:39:05.137Z,1007.69
2022-11-27T09:40:05.115Z,1007.60
2022-11-27T09:41:05.097Z,1007.64
2022-11-27T09:42:05.116Z,1007.60
2022-11-27T09:43:05.088Z,1007.61
2022-11-27T09:44:05.059Z,1007.54
2022-11-27T09:45:05.055Z,1007.54
2022-11-27T09:47:00.910Z,1007.49
2022-11-27T09:48:00.917Z,1007.51
2022-11-27T09:49:00.898Z,1007.41
2022-11-27T09:50:00.873Z,1007.44
2022-11-27T09:51:00.868Z,1007.40
2022-11-27T09:52:00.839Z,1007.33
2022-11-27T09:53:00.837Z,1007.35
2022-11-27T09:54:00.848Z,1007.35
2022-11-27T09:55:00.808Z,1007.36
2022-11-27T09:56:00.800Z,1007.36
2022-11-27T09:57:00.800Z,1007.33
2022-11-27T09:58:00.778Z,1007.34
2022-11-27T09:59:00.778Z,1007.30
2022-11-27T10:00:00.775Z,1007.24
2022-11-27T10:01:00.746Z,1007.24
2022-11-27T10:02:00.802Z,1007.16
2022-11-27T10:03:00.954Z,1007.18
2022-11-27T10:04:00.727Z,1007.18
2022-11-27T10:05:14.612Z,1007.19
2022-11-27T10:06:01.708Z,1007.15
2022-11-27T10:07:00.680Z,1007.13
2022-11-27T10:08:06.107Z,1007.14
2022-11-27T10:09:01.659Z,1007.11
2022-11-27T10:10:00.648Z,1007.10
2022-11-27T10:11:00.638Z,1007.02
2022-11-27T10:12:00.642Z,1007.11
2022-11-27T10:13:00.617Z,1007.07
2022-11-27T10:14:00.608Z,1007.06
2022-11-27T10:15:00.596Z,1007.05
2022-11-27T10:16:00.578Z,1007.04
2022-11-27T10:17:00.616Z,1007.06
2022-11-27T10:18:00.582Z,1007.03
2022-11-27T10:19:00.557Z,1007.00
2022-11-27T10:20:00.527Z,1006.96
2022-11-27T10:21:00.525Z,1007.01
2022-11-27T10:22:00.509Z,1006.94
2022-11-27T10:23:00.499Z,1006.98
2022-11-27T10:24:00.569Z,1006.96
2022-11-27T10:25:00.477Z,1006.98
2022-11-27T10:26:00.467Z,1006.95
2022-11-27T10:27:00.457Z,1006.97
2022-11-27T10:28:00.442Z,1007.00
2022-11-27T10:29:00.429Z,1006.92
2022-11-27T10:30:00.437Z,1006.88
2022-11-27T10:31:00.407Z,1006.86
2022-11-27T10:32:00.419Z,1006.90
2022-11-27T10:33:00.425Z,1006.80
2022-11-27T10:34:00.385Z,1006.83
2022-11-27T10:35:00.387Z,1006.79
2022-11-27T10:36:00.355Z,1006.69
2022-11-27T10:37:00.337Z,1006.71
2022-11-27T10:38:05.312Z,1006.67
2022-11-27T10:39:01.327Z,1006.62
2022-11-27T10:40:00.310Z,1006.63
2022-11-27T10:41:00.328Z,1006.60
2022-11-27T10:42:00.278Z,1006.60
2022-11-27T10:43:00.278Z,1006.62
2022-11-27T10:44:01.798Z,1006.57
2022-11-27T10:45:00.276Z,1006.59
2022-11-27T10:46:00.330Z,1006.61
2022-11-27T10:47:00.345Z,1006.55
2022-11-27T10:48:00.219Z,1006.52
2022-11-27T10:49:00.207Z,1006.49
2022-11-27T10:50:00.210Z,1006.50
2022-11-27T10:51:00.188Z,1006.40
2022-11-27T10:52:00.176Z,1006.44
2022-11-27T10:53:00.188Z,1006.37
2022-11-27T10:54:00.157Z,1006.40
2022-11-27T10:55:00.156Z,1006.38
2022-11-27T10:56:00.127Z,1006.39
2022-11-27T10:57:00.147Z,1006.34
2022-11-27T10:58:00.116Z,1006.36
2022-11-27T10:59:00.117Z,1006.28
2022-11-27T11:00:00.091Z,1006.26
2022-11-27T11:01:00.203Z,1006.30
2022-11-27T11:02:00.153Z,1006.22
2022-11-27T11:03:00.060Z,1006.25
2022-11-27T11:04:00.047Z,1006.26
2022-11-27T11:05:30.727Z,1006.20
2022-11-27T11:06:21.262Z,1006.18
2022-11-27T11:07:01.008Z,1006.17
2022-11-27T11:08:00.033Z,1006.14
2022-11-27T11:09:01.447Z,1006.12
2022-11-27T11:09:59.968Z,1006.06
2022-11-27T11:11:00.025Z,1006.03
2022-11-27T11:11:59.954Z,1005.98
2022-11-27T11:12:59.946Z,1005.99
2022-11-27T11:14:00.105Z,1005.92
2022-11-27T11:14:59.926Z,1005.94
2022-11-27T11:15:59.914Z,1005.94
2022-11-27T11:17:00.069Z,1005.97
2022-11-27T11:17:59.878Z,1005.90
2022-11-27T11:18:59.866Z,1005.87
2022-11-27T11:19:59.855Z,1005.92
2022-11-27T11:20:59.848Z,1005.86
2022-11-27T11:21:59.835Z,1005.86
2022-11-27T11:22:59.847Z,1005.83
2022-11-27T11:23:59.838Z,1005.87
2022-11-27T11:24:59.817Z,1005.78
2022-11-27T11:25:59.786Z,1005.87
2022-11-27T11:26:59.776Z,1005.75
2022-11-27T11:27:59.769Z,1005.72
2022-11-27T11:28:59.798Z,1005.72
2022-11-27T11:29:59.737Z,1005.73
2022-11-27T11:30:59.737Z,1005.67
2022-11-27T11:31:59.773Z,1005.69
2022-11-27T11:32:59.714Z,1005.68
2022-11-27T11:33:59.707Z,1005.64
2022-11-27T11:35:01.320Z,1005.58
2022-11-27T11:36:00.337Z,1005.51
2022-11-27T11:36:59.672Z,1005.52
2022-11-27T11:37:59.665Z,1005.53
2022-11-27T11:38:59.638Z,1005.50
2022-11-27T11:39:59.637Z,1005.54
2022-11-27T11:40:59.664Z,1005.53
2022-11-27T11:41:59.606Z,1005.50
2022-11-27T11:42:59.620Z,1005.54
2022-11-27T11:43:59.585Z,1005.56
2022-11-27T11:44:59.577Z,1005.52
2022-11-27T11:45:59.744Z,1005.48
2022-11-27T11:47:00.214Z,1005.43
2022-11-27T11:47:59.535Z,1005.39
2022-11-27T11:48:59.534Z,1005.33
2022-11-27T11:49:59.517Z,1005.35
2022-11-27T11:50:59.507Z,1005.22
2022-11-27T11:51:59.486Z,1005.24
2022-11-27T11:52:59.510Z,1005.23
2022-11-27T11:53:59.485Z,1005.24
2022-11-27T11:54:59.457Z,1005.25
2022-11-27T11:55:59.446Z,1005.27
2022-11-27T11:56:59.436Z,1005.24
2022-11-27T11:57:59.425Z,1005.28
2022-11-27T11:58:59.435Z,1005.27
2022-11-27T11:59:59.399Z,1005.28
2022-11-27T12:01:25.594Z,1005.24
2022-11-27T12:02:00.409Z,1005.28
2022-11-27T12:02:59.365Z,1005.25
2022-11-27T12:03:59.432Z,1005.18
2022-11-27T12:04:59.439Z,1005.22
2022-11-27T12:05:59.334Z,1005.19